createdAt,value
2019-05-19T00:00:20.993Z,7.30
2019-05-19T00:02:49.758Z,6.77
2019-05-19T00:05:18.230Z,7.30
2019-05-19T00:07:46.810Z,6.40
2019-05-19T00:10:15.594Z,7.07
2019-05-19T00:12:44.087Z,7.40
2019-05-19T00:15:12.722Z,6.70
2019-05-19T00:17:41.303Z,6.93
2019-05-19T00:20:09.782Z,7.40
2019-05-19T00:22:38.383Z,7.27
2019-05-19T00:25:07.787Z,7.57
2019-05-19T00:27:36.371Z,7.00
2019-05-19T00:30:05.752Z,6.47
2019-05-19T00:32:35.065Z,7.30
2019-05-19T00:35:04.051Z,6.20
2019-05-19T00:37:32.561Z,6.73
2019-05-19T00:40:01.140Z,6.77
2019-05-19T00:42:29.835Z,6.83
2019-05-19T00:44:58.419Z,6.83
2019-05-19T00:47:27.134Z,7.20
2019-05-19T00:49:55.744Z,6.53
2019-05-19T00:52:24.240Z,6.23
2019-05-19T00:54:52.942Z,6.87
2019-05-19T00:57:22.453Z,6.60
2019-05-19T00:59:51.649Z,6.97
2019-05-19T01:02:20.233Z,6.40
2019-05-19T01:04:48.726Z,6.97
2019-05-19T01:07:17.208Z,7.07
2019-05-19T01:09:45.811Z,6.80
2019-05-19T01:12:14.431Z,6.53
2019-05-19T01:14:42.833Z,6.53
2019-05-19T01:17:11.622Z,6.80
2019-05-19T01:19:40.206Z,6.97
2019-05-19T01:22:08.907Z,7.70
2019-05-19T01:24:37.486Z,6.87
2019-05-19T01:27:05.982Z,6.77
2019-05-19T01:29:34.621Z,6.37
2019-05-19T01:32:03.103Z,6.60
2019-05-19T01:34:31.714Z,6.23
2019-05-19T01:37:00.197Z,6.30
2019-05-19T01:39:28.957Z,6.53
2019-05-19T01:41:57.537Z,6.83
2019-05-19T01:44:26.020Z,6.67
2019-05-19T01:46:54.508Z,7.20
2019-05-19T01:49:22.993Z,6.77
2019-05-19T01:51:51.569Z,6.77
2019-05-19T01:54:20.427Z,6.67
2019-05-19T01:56:49.052Z,6.43
2019-05-19T01:59:17.518Z,6.13
2019-05-19T02:01:46.008Z,5.57
2019-05-19T02:04:14.633Z,5.63
2019-05-19T02:06:43.228Z,5.40
2019-05-19T02:09:11.732Z,5.87
2019-05-19T02:11:40.270Z,5.70
2019-05-19T02:14:08.867Z,5.80
2019-05-19T02:16:37.392Z,5.60
2019-05-19T02:19:06.022Z,6.13
2019-05-19T02:21:34.660Z,5.80
2019-05-19T02:24:03.261Z,6.17
2019-05-19T02:26:31.969Z,5.93
2019-05-19T02:29:00.426Z,6.30
2019-05-19T02:31:29.024Z,6.10
2019-05-19T02:33:57.627Z,6.13
2019-05-19T02:36:26.193Z,5.93
2019-05-19T02:38:54.799Z,6.27
2019-05-19T02:41:25.849Z,6.27
2019-05-19T02:43:56.324Z,5.90
2019-05-19T02:46:24.901Z,5.90
2019-05-19T02:48:54.110Z,6.10
2019-05-19T02:51:25.620Z,5.60
2019-05-19T02:53:55.305Z,5.60
2019-05-19T02:56:25.530Z,5.80
2019-05-19T02:58:55.112Z,5.20
2019-05-19T03:01:23.503Z,5.57
2019-05-19T03:03:52.205Z,5.60
2019-05-19T03:06:20.689Z,5.77
2019-05-19T03:08:49.166Z,5.50
2019-05-19T03:11:17.613Z,5.30
2019-05-19T03:13:46.109Z,6.13
2019-05-19T03:16:14.707Z,6.00
2019-05-19T03:18:43.103Z,6.03
2019-05-19T03:21:12.183Z,6.03
2019-05-19T03:23:40.761Z,6.20
2019-05-19T03:26:09.237Z,5.77
2019-05-19T03:28:37.817Z,6.10
2019-05-19T03:31:14.343Z,5.80
2019-05-19T03:33:44.631Z,5.50
2019-05-19T03:36:13.120Z,7.37
2019-05-19T03:38:41.703Z,6.50
2019-05-19T03:41:10.283Z,5.87
2019-05-19T03:43:39.004Z,5.57
2019-05-19T03:46:07.620Z,5.63
2019-05-19T03:48:36.115Z,6.47
2019-05-19T03:51:04.833Z,5.97
2019-05-19T03:53:33.387Z,6.50
2019-05-19T03:56:01.994Z,5.70
2019-05-19T03:58:30.592Z,6.07
2019-05-19T04:00:59.083Z,5.03
2019-05-19T04:03:27.658Z,4.60
2019-05-19T04:05:56.134Z,5.10
2019-05-19T04:08:24.748Z,4.93
2019-05-19T04:10:53.334Z,5.40
2019-05-19T04:13:21.918Z,5.03
2019-05-19T04:15:50.430Z,5.30
2019-05-19T04:18:19.063Z,5.47
2019-05-19T04:20:47.525Z,5.13
2019-05-19T04:23:15.919Z,5.43
2019-05-19T04:25:44.566Z,5.90
2019-05-19T04:28:13.041Z,6.03
2019-05-19T04:30:41.528Z,6.57
2019-05-19T04:33:10.021Z,6.30
2019-05-19T04:35:38.608Z,9.30
2019-05-19T04:38:07.112Z,6.60
2019-05-19T04:40:35.834Z,6.37
2019-05-19T04:43:04.459Z,6.10
2019-05-19T04:45:32.948Z,7.93
2019-05-19T04:48:01.642Z,7.97
2019-05-19T04:50:30.233Z,5.53
2019-05-19T04:52:58.751Z,5.37
2019-05-19T04:55:27.248Z,6.30
2019-05-19T04:57:55.862Z,6.17
2019-05-19T05:00:24.360Z,6.00
2019-05-19T05:02:52.960Z,6.43
2019-05-19T05:05:21.465Z,5.77
2019-05-19T05:07:49.951Z,5.87
2019-05-19T05:10:18.634Z,5.87
2019-05-19T05:12:47.224Z,5.57
2019-05-19T05:15:16.090Z,5.20
2019-05-19T05:17:44.737Z,5.80
2019-05-19T05:20:13.511Z,5.67
2019-05-19T05:22:42.003Z,5.60
2019-05-19T05:25:10.903Z,5.50
2019-05-19T05:27:39.510Z,6.17
2019-05-19T05:30:08.485Z,5.73
2019-05-19T05:32:37.283Z,5.83
2019-05-19T05:35:06.751Z,6.17
2019-05-19T05:37:35.247Z,5.90
2019-05-19T05:40:04.694Z,6.80
2019-05-19T05:42:33.310Z,7.30
2019-05-19T05:45:01.884Z,6.20
2019-05-19T05:47:30.508Z,5.37
2019-05-19T05:49:58.886Z,5.27
2019-05-19T05:52:38.143Z,5.67
2019-05-19T05:54:58.018Z,5.73
2019-05-19T05:57:26.505Z,7.97
2019-05-19T05:59:55.105Z,5.90
2019-05-19T06:02:23.596Z,6.20
2019-05-19T06:04:52.097Z,5.77
2019-05-19T06:07:20.682Z,6.43
2019-05-19T06:09:49.410Z,6.30
2019-05-19T06:12:17.770Z,6.63
2019-05-19T06:14:46.264Z,5.80
2019-05-19T06:17:14.800Z,5.73
2019-05-19T06:19:43.357Z,6.00
2019-05-19T06:22:11.867Z,6.50
2019-05-19T06:24:40.514Z,5.60
2019-05-19T06:27:09.003Z,6.00
2019-05-19T06:29:37.605Z,6.10
2019-05-19T06:32:16.434Z,6.30
2019-05-19T06:34:45.084Z,5.67
2019-05-19T06:37:13.724Z,5.57
2019-05-19T06:39:42.300Z,5.43
2019-05-19T06:42:10.885Z,6.57
2019-05-19T06:44:39.689Z,5.47
2019-05-19T06:47:08.240Z,5.63
2019-05-19T06:49:36.921Z,5.70
2019-05-19T06:52:05.506Z,5.90
2019-05-19T06:54:34.284Z,6.07
2019-05-19T06:57:02.813Z,6.47
2019-05-19T06:59:31.613Z,5.63
2019-05-19T07:02:00.203Z,5.97
2019-05-19T07:04:28.757Z,5.90
2019-05-19T07:06:57.418Z,6.17
2019-05-19T07:09:26.398Z,5.73
2019-05-19T07:11:55.144Z,6.10
2019-05-19T07:14:23.725Z,6.17
2019-05-19T07:16:52.212Z,5.77
2019-05-19T07:19:20.827Z,5.60
2019-05-19T07:21:49.521Z,5.77
2019-05-19T07:24:18.124Z,6.10
2019-05-19T07:26:46.827Z,5.50
2019-05-19T07:29:15.426Z,5.87
2019-05-19T07:31:43.919Z,5.77
2019-05-19T07:34:12.333Z,5.63
2019-05-19T07:36:40.936Z,5.30
2019-05-19T07:39:09.576Z,5.20
2019-05-19T07:41:38.145Z,4.93
2019-05-19T07:44:06.750Z,5.90
2019-05-19T07:46:35.253Z,5.73
2019-05-19T07:49:03.755Z,5.53
2019-05-19T07:51:32.341Z,5.40
2019-05-19T07:54:00.974Z,5.00
2019-05-19T07:56:29.468Z,4.80
2019-05-19T07:58:58.089Z,4.10
2019-05-19T08:01:26.793Z,5.13
2019-05-19T08:03:55.314Z,5.20
2019-05-19T08:06:23.886Z,5.00
2019-05-19T08:08:52.517Z,4.80
2019-05-19T08:11:21.012Z,4.53
2019-05-19T08:13:49.900Z,4.30
2019-05-19T08:16:18.415Z,4.87
2019-05-19T08:18:47.110Z,4.57
2019-05-19T08:21:15.645Z,4.73
2019-05-19T08:23:59.160Z,4.73
2019-05-19T08:26:14.642Z,4.83
2019-05-19T08:28:43.231Z,4.70
2019-05-19T08:31:11.827Z,4.97
2019-05-19T08:33:40.324Z,4.83
2019-05-19T08:36:08.777Z,5.00
2019-05-19T08:38:37.293Z,4.57
2019-05-19T08:41:05.864Z,4.70
2019-05-19T08:43:34.437Z,4.83
2019-05-19T08:46:03.019Z,4.43
2019-05-19T08:48:31.511Z,4.20
2019-05-19T08:51:00.000Z,5.23
2019-05-19T08:53:28.484Z,3.90
2019-05-19T08:55:56.893Z,4.13
2019-05-19T08:58:25.386Z,4.00
2019-05-19T09:00:53.966Z,4.30
2019-05-19T09:03:22.358Z,4.33
2019-05-19T09:05:50.752Z,4.73
2019-05-19T09:08:19.158Z,4.23
2019-05-19T09:10:47.657Z,4.10
2019-05-19T09:13:16.131Z,3.93
2019-05-19T09:15:44.675Z,3.67
2019-05-19T09:18:13.402Z,3.83
2019-05-19T09:20:42.084Z,4.00
2019-05-19T09:23:10.578Z,4.10
2019-05-19T09:25:39.197Z,4.13
2019-05-19T09:28:07.776Z,3.93
2019-05-19T09:30:36.261Z,4.07
2019-05-19T09:33:04.847Z,4.03
2019-05-19T09:35:33.441Z,3.57
2019-05-19T09:38:01.923Z,3.93
2019-05-19T09:40:30.421Z,3.80
2019-05-19T09:42:59.012Z,3.57
2019-05-19T09:45:27.483Z,3.67
2019-05-19T09:47:55.970Z,3.50
2019-05-19T09:50:24.545Z,3.50
2019-05-19T09:52:53.122Z,3.63
2019-05-19T09:55:21.608Z,5.03
2019-05-19T09:57:50.190Z,4.87
2019-05-19T10:00:22.294Z,4.33
2019-05-19T10:02:50.978Z,3.90
2019-05-19T10:05:19.470Z,4.20
2019-05-19T10:07:48.085Z,3.63
2019-05-19T10:10:18.107Z,3.67
2019-05-19T10:12:46.605Z,4.07
2019-05-19T10:15:15.223Z,4.00
2019-05-19T10:17:43.937Z,4.20
2019-05-19T10:20:13.343Z,9.23
2019-05-19T10:22:41.825Z,5.57
2019-05-19T10:25:21.755Z,9.13
2019-05-19T10:27:41.973Z,6.00
2019-05-19T10:30:11.695Z,4.40
2019-05-19T10:32:40.377Z,3.87
2019-05-19T10:35:09.003Z,4.00
2019-05-19T10:37:37.747Z,3.67
2019-05-19T10:40:07.158Z,3.60
2019-05-19T10:42:35.665Z,3.50
2019-05-19T10:45:05.988Z,3.50
2019-05-19T10:47:34.570Z,3.73
2019-05-19T10:50:03.689Z,3.90
2019-05-19T10:52:32.429Z,3.43
2019-05-19T10:55:01.035Z,3.50
2019-05-19T10:57:29.712Z,3.30
2019-05-19T10:59:58.324Z,12.67
2019-05-19T11:02:26.938Z,4.50
2019-05-19T11:04:55.629Z,3.77
2019-05-19T11:07:24.118Z,10.43
2019-05-19T11:09:52.737Z,4.30
2019-05-19T11:12:21.325Z,3.20
2019-05-19T11:14:49.919Z,2.80
2019-05-19T11:17:18.624Z,3.20
2019-05-19T11:19:47.206Z,3.40
2019-05-19T11:22:15.890Z,2.70
2019-05-19T11:24:44.570Z,3.00
2019-05-19T11:27:13.238Z,3.00
2019-05-19T11:29:41.819Z,3.17
2019-05-19T11:32:10.398Z,2.87
2019-05-19T11:34:39.074Z,3.70
2019-05-19T11:37:07.590Z,3.63
2019-05-19T11:39:36.142Z,3.83
2019-05-19T11:42:04.747Z,3.60
2019-05-19T11:44:33.573Z,4.90
2019-05-19T11:47:02.301Z,7.00
2019-05-19T11:49:30.983Z,5.50
2019-05-19T11:51:59.599Z,6.47
2019-05-19T11:54:28.281Z,5.07
2019-05-19T11:56:56.864Z,4.33
2019-05-19T11:59:25.461Z,4.40
2019-05-19T12:01:54.065Z,4.23
2019-05-19T12:04:22.649Z,3.90
2019-05-19T12:06:51.189Z,3.70
2019-05-19T12:09:19.972Z,4.00
2019-05-19T12:11:48.555Z,3.70
2019-05-19T12:14:17.148Z,3.90
2019-05-19T12:16:45.831Z,3.97
2019-05-19T12:19:14.758Z,3.73
2019-05-19T12:21:43.347Z,4.43
2019-05-19T12:24:11.908Z,4.27
2019-05-19T12:26:40.508Z,3.90
2019-05-19T12:29:09.016Z,4.07
2019-05-19T12:31:37.613Z,4.60
2019-05-19T12:34:06.446Z,4.70
2019-05-19T12:36:35.145Z,5.27
2019-05-19T12:39:05.282Z,4.30
2019-05-19T12:41:33.882Z,4.67
2019-05-19T12:44:02.635Z,4.60
2019-05-19T12:46:31.244Z,4.23
2019-05-19T12:49:00.031Z,4.23
2019-05-19T12:51:28.541Z,4.57
2019-05-19T12:53:57.334Z,4.70
2019-05-19T12:56:38.576Z,4.80
2019-05-19T12:58:56.343Z,5.07
2019-05-19T13:01:25.030Z,5.67
2019-05-19T13:03:53.741Z,4.50
2019-05-19T13:06:22.370Z,4.40
2019-05-19T13:08:51.250Z,4.83
2019-05-19T13:11:19.844Z,5.00
2019-05-19T13:13:48.417Z,4.97
2019-05-19T13:16:17.113Z,5.17
2019-05-19T13:18:45.813Z,4.37
2019-05-19T13:21:14.421Z,4.07
2019-05-19T13:23:43.230Z,4.67
2019-05-19T13:26:11.820Z,4.20
2019-05-19T13:28:40.411Z,4.90
2019-05-19T13:31:09.222Z,4.20
2019-05-19T13:33:37.899Z,4.53
2019-05-19T13:36:06.496Z,4.53
2019-05-19T13:38:35.089Z,4.33
2019-05-19T13:41:04.092Z,4.57
2019-05-19T13:43:32.687Z,4.13
2019-05-19T13:46:01.391Z,3.70
2019-05-19T13:48:30.093Z,4.27
2019-05-19T13:50:58.774Z,4.23
2019-05-19T13:53:27.567Z,3.80
2019-05-19T13:55:56.049Z,3.93
2019-05-19T13:58:24.644Z,3.93
2019-05-19T14:00:53.249Z,3.93
2019-05-19T14:03:22.236Z,3.80
2019-05-19T14:05:50.917Z,3.83
2019-05-19T14:08:19.624Z,3.87
2019-05-19T14:10:48.223Z,3.80
2019-05-19T14:13:16.838Z,4.20
2019-05-19T14:15:45.434Z,4.00
2019-05-19T14:18:14.365Z,4.20
2019-05-19T14:20:43.282Z,3.93
2019-05-19T14:23:11.880Z,4.33
2019-05-19T14:25:40.379Z,4.67
2019-05-19T14:28:08.972Z,4.93
2019-05-19T14:30:37.577Z,4.07
2019-05-19T14:33:06.267Z,4.07
2019-05-19T14:35:34.976Z,4.17
2019-05-19T14:38:03.658Z,4.17
2019-05-19T14:40:32.274Z,4.17
2019-05-19T14:43:01.740Z,4.90
2019-05-19T14:45:30.848Z,4.07
2019-05-19T14:47:59.629Z,4.77
2019-05-19T14:50:28.233Z,3.97
2019-05-19T14:52:56.812Z,4.07
2019-05-19T14:55:25.400Z,4.23
2019-05-19T14:57:53.900Z,4.07
2019-05-19T15:00:23.294Z,4.40
2019-05-19T15:02:51.795Z,4.20
2019-05-19T15:05:20.397Z,4.17
2019-05-19T15:07:48.972Z,4.83
2019-05-19T15:10:17.776Z,4.13
2019-05-19T15:12:46.466Z,4.27
2019-05-19T15:15:15.792Z,4.30
2019-05-19T15:17:44.267Z,4.27
2019-05-19T15:20:12.756Z,4.20
2019-05-19T15:22:41.349Z,4.63
2019-05-19T15:25:10.021Z,5.40
2019-05-19T15:27:38.620Z,6.27
2019-05-19T15:30:13.179Z,4.57
2019-05-19T15:32:38.753Z,4.30
2019-05-19T15:35:07.670Z,4.33
2019-05-19T15:37:36.275Z,4.40
2019-05-19T15:40:05.351Z,4.67
2019-05-19T15:42:33.962Z,4.57
2019-05-19T15:45:02.551Z,4.83
2019-05-19T15:47:31.244Z,4.27
2019-05-19T15:49:59.756Z,4.70
2019-05-19T15:52:28.264Z,4.50
2019-05-19T15:54:56.861Z,4.40
2019-05-19T15:57:28.546Z,4.53
2019-05-19T15:59:55.947Z,5.13
2019-05-19T16:02:24.538Z,4.33
2019-05-19T16:04:53.139Z,5.30
2019-05-19T16:07:21.631Z,18.03
2019-05-19T16:09:50.215Z,15.33
2019-05-19T16:12:18.911Z,26.50
2019-05-19T16:14:47.319Z,8.73
2019-05-19T16:17:15.870Z,7.80
2019-05-19T16:19:44.611Z,21.00
2019-05-19T16:22:13.299Z,21.07
2019-05-19T16:24:41.882Z,9.03
2019-05-19T16:27:12.845Z,7.63
2019-05-19T16:29:40.748Z,10.67
2019-05-19T16:32:09.236Z,12.40
2019-05-19T16:34:37.821Z,11.63
2019-05-19T16:37:06.230Z,5.80
2019-05-19T16:39:34.809Z,4.63
2019-05-19T16:42:03.531Z,4.80
2019-05-19T16:44:32.134Z,4.60
2019-05-19T16:47:00.614Z,4.50
2019-05-19T16:49:29.139Z,4.33
2019-05-19T16:51:57.622Z,4.13
2019-05-19T16:54:30.844Z,3.90
2019-05-19T16:56:59.432Z,3.60
2019-05-19T16:59:28.026Z,3.77
2019-05-19T17:01:56.518Z,5.07
2019-05-19T17:04:25.116Z,5.20
2019-05-19T17:06:53.592Z,4.03
2019-05-19T17:09:22.283Z,3.97
2019-05-19T17:11:50.864Z,3.93
2019-05-19T17:14:19.565Z,4.13
2019-05-19T17:16:48.057Z,4.10
2019-05-19T17:19:16.783Z,3.73
2019-05-19T17:21:45.361Z,3.93
2019-05-19T17:24:13.986Z,4.20
2019-05-19T17:26:42.501Z,3.77
2019-05-19T17:29:11.132Z,3.97
2019-05-19T17:31:39.655Z,4.60
2019-05-19T17:34:08.267Z,3.73
2019-05-19T17:36:36.770Z,3.53
2019-05-19T17:39:06.245Z,3.97
2019-05-19T17:41:34.741Z,3.67
2019-05-19T17:44:03.403Z,4.20
2019-05-19T17:46:32.210Z,4.03
2019-05-19T17:49:00.940Z,4.00
2019-05-19T17:51:29.454Z,4.30
2019-05-19T17:53:58.006Z,4.20
2019-05-19T17:56:28.043Z,3.90
2019-05-19T17:58:57.248Z,4.20
2019-05-19T18:01:25.950Z,4.47
2019-05-19T18:03:54.593Z,4.90
2019-05-19T18:06:23.119Z,5.10
2019-05-19T18:08:51.735Z,4.70
2019-05-19T18:11:20.239Z,5.13
2019-05-19T18:13:48.805Z,5.80
2019-05-19T18:16:17.325Z,5.80
2019-05-19T18:18:45.961Z,4.13
2019-05-19T18:21:14.458Z,4.57
2019-05-19T18:23:43.191Z,4.73
2019-05-19T18:26:11.822Z,4.77
2019-05-19T18:28:40.366Z,4.67
2019-05-19T18:31:09.120Z,4.50
2019-05-19T18:33:37.827Z,4.70
2019-05-19T18:36:06.570Z,4.57
2019-05-19T18:38:35.205Z,4.60
2019-05-19T18:41:03.900Z,4.13
2019-05-19T18:43:32.486Z,4.80
2019-05-19T18:46:01.109Z,4.30
2019-05-19T18:48:29.652Z,4.33
2019-05-19T18:50:58.146Z,4.87
2019-05-19T18:53:26.687Z,4.40
2019-05-19T18:55:55.209Z,4.70
2019-05-19T18:58:23.900Z,5.03
2019-05-19T19:00:52.578Z,5.03
2019-05-19T19:03:21.111Z,4.57
2019-05-19T19:05:49.723Z,4.97
2019-05-19T19:08:18.431Z,4.63
2019-05-19T19:10:47.058Z,5.30
2019-05-19T19:13:15.701Z,5.00
2019-05-19T19:15:44.227Z,4.77
2019-05-19T19:18:12.841Z,4.60
2019-05-19T19:20:41.452Z,4.53
2019-05-19T19:23:09.947Z,4.30
2019-05-19T19:25:38.438Z,4.13
2019-05-19T19:28:07.133Z,4.83
2019-05-19T19:30:35.744Z,4.37
2019-05-19T19:33:04.444Z,4.57
2019-05-19T19:35:39.286Z,4.53
2019-05-19T19:38:03.314Z,4.37
2019-05-19T19:40:32.121Z,4.87
2019-05-19T19:43:01.010Z,4.40
2019-05-19T19:45:29.609Z,4.87
2019-05-19T19:47:58.136Z,4.77
2019-05-19T19:50:26.636Z,4.23
2019-05-19T19:52:55.238Z,4.30
2019-05-19T19:55:23.934Z,4.43
2019-05-19T19:57:52.529Z,4.20
2019-05-19T20:00:41.640Z,4.40
2019-05-19T20:03:10.432Z,4.30
2019-05-19T20:05:39.120Z,3.90
2019-05-19T20:08:07.727Z,4.20
2019-05-19T20:10:36.457Z,4.37
2019-05-19T20:13:05.082Z,4.07
2019-05-19T20:15:34.220Z,3.83
2019-05-19T20:18:02.832Z,3.80
2019-05-19T20:20:31.424Z,4.17
2019-05-19T20:23:00.023Z,3.80
2019-05-19T20:25:28.533Z,3.80
2019-05-19T20:27:57.282Z,4.10
2019-05-19T20:30:35.182Z,4.00
2019-05-19T20:32:56.406Z,4.10
2019-05-19T20:35:24.950Z,3.87
2019-05-19T20:37:53.441Z,3.73
2019-05-19T20:40:30.270Z,4.30
2019-05-19T20:42:58.894Z,3.70
2019-05-19T20:45:27.885Z,4.00
2019-05-19T20:47:56.772Z,3.70
2019-05-19T20:50:25.761Z,3.70
2019-05-19T20:52:54.740Z,3.80
2019-05-19T20:55:23.387Z,4.03
2019-05-19T20:57:52.033Z,4.20
2019-05-19T21:00:21.063Z,4.13
2019-05-19T21:02:49.830Z,4.33
2019-05-19T21:05:18.460Z,3.67
2019-05-19T21:07:47.367Z,3.80
2019-05-19T21:10:15.979Z,4.23
2019-05-19T21:12:44.634Z,3.70
2019-05-19T21:15:13.524Z,4.17
2019-05-19T21:17:42.231Z,4.63
2019-05-19T21:20:11.816Z,4.07
2019-05-19T21:22:41.438Z,3.90
2019-05-19T21:25:10.525Z,3.60
2019-05-19T21:27:39.191Z,4.23
2019-05-19T21:30:09.408Z,4.07
2019-05-19T21:32:38.027Z,4.20
2019-05-19T21:35:06.745Z,3.60
2019-05-19T21:37:35.460Z,3.80
2019-05-19T21:40:05.265Z,4.40
2019-05-19T21:42:33.899Z,3.90
2019-05-19T21:45:02.847Z,4.03
2019-05-19T21:47:31.672Z,4.00
2019-05-19T21:50:00.279Z,4.27
2019-05-19T21:52:29.000Z,4.33
2019-05-19T21:54:57.732Z,4.10
2019-05-19T21:57:26.341Z,4.40
2019-05-19T21:59:55.077Z,4.33
2019-05-19T22:02:23.813Z,4.03
2019-05-19T22:04:52.548Z,4.70
2019-05-19T22:07:34.784Z,4.07
2019-05-19T22:10:03.623Z,3.47
2019-05-19T22:12:32.363Z,3.87
2019-05-19T22:15:01.108Z,3.50
2019-05-19T22:17:29.761Z,3.50
2019-05-19T22:19:58.614Z,3.37
2019-05-19T22:22:27.236Z,3.23
2019-05-19T22:24:55.876Z,3.40
2019-05-19T22:27:24.630Z,3.20
2019-05-19T22:29:53.171Z,3.23
2019-05-19T22:32:21.974Z,3.50
2019-05-19T22:34:50.814Z,3.33
2019-05-19T22:37:19.462Z,3.40
2019-05-19T22:39:48.100Z,3.20
2019-05-19T22:42:16.951Z,3.00
2019-05-19T22:44:45.572Z,3.10
2019-05-19T22:47:14.430Z,3.40
2019-05-19T22:49:43.150Z,2.97
2019-05-19T22:52:11.880Z,3.53
2019-05-19T22:54:40.615Z,3.03
2019-05-19T22:57:09.266Z,3.50
2019-05-19T22:59:37.773Z,3.60
2019-05-19T23:02:09.174Z,3.47
2019-05-19T23:04:37.182Z,3.33
2019-05-19T23:07:05.836Z,3.33
2019-05-19T23:09:34.675Z,3.83
2019-05-19T23:12:03.308Z,3.57
2019-05-19T23:14:32.060Z,3.40
2019-05-19T23:17:00.771Z,3.10
2019-05-19T23:19:29.496Z,3.40
2019-05-19T23:21:58.339Z,3.10
2019-05-19T23:24:27.066Z,3.20
2019-05-19T23:26:55.809Z,3.43
2019-05-19T23:29:24.669Z,3.10
2019-05-19T23:32:06.390Z,3.37
2019-05-19T23:34:23.988Z,3.73
2019-05-19T23:36:52.769Z,3.80
2019-05-19T23:39:21.392Z,3.97
2019-05-19T23:41:50.229Z,3.53
2019-05-19T23:44:18.975Z,3.93
2019-05-19T23:46:47.694Z,3.90
2019-05-19T23:49:16.314Z,3.70
2019-05-19T23:51:44.943Z,4.10
2019-05-19T23:54:13.571Z,4.33
2019-05-19T23:56:42.305Z,3.97
2019-05-19T23:59:10.963Z,4.10
